sensor_id;sensor_type;location;lat;lon;timestamp;temperature;humidity
22185;DHT22;11258;52.516;13.318;2023-05-02T00:01:56;15.60;99.90
22185;DHT22;11258;52.516;13.318;2023-05-02T00:04:22;15.60;99.90
22185;DHT22;11258;52.516;13.318;2023-05-02T00:06:50;15.60;99.90
22185;DHT22;11258;52.516;13.318;2023-05-02T00:09:15;15.60;99.90
22185;DHT22;11258;52.516;13.318;2023-05-02T00:11:41;15.60;99.90
22185;DHT22;11258;52.516;13.318;2023-05-02T00:14:07;15.60;99.90
22185;DHT22;11258;52.516;13.318;2023-05-02T00:16:32;15.60;99.90
22185;DHT22;11258;52.516;13.318;2023-05-02T00:18:58;15.50;99.90
22185;DHT22;11258;52.516;13.318;2023-05-02T00:21:23;15.40;99.90
22185;DHT22;11258;52.516;13.318;2023-05-02T00:23:50;15.40;99.90
22185;DHT22;11258;52.516;13.318;2023-05-02T00:26:16;15.30;99.90
22185;DHT22;11258;52.516;13.318;2023-05-02T00:28:41;15.20;99.90
22185;DHT22;11258;52.516;13.318;2023-05-02T00:31:07;15.20;99.90
22185;DHT22;11258;52.516;13.318;2023-05-02T00:33:33;15.20;99.90
22185;DHT22;11258;52.516;13.318;2023-05-02T00:35:59;15.20;99.90
22185;DHT22;11258;52.516;13.318;2023-05-02T00:38:24;15.20;99.90
22185;DHT22;11258;52.516;13.318;2023-05-02T00:40:50;15.20;99.90
22185;DHT22;11258;52.516;13.318;2023-05-02T00:43:17;15.10;99.90
22185;DHT22;11258;52.516;13.318;2023-05-02T00:45:44;15.10;99.90
22185;DHT22;11258;52.516;13.318;2023-05-02T00:48:11;15.00;99.90
22185;DHT22;11258;52.516;13.318;2023-05-02T00:50:41;14.90;99.90
22185;DHT22;11258;52.516;13.318;2023-05-02T00:53:08;14.90;99.90
22185;DHT22;11258;52.516;13.318;2023-05-02T00:55:34;15.00;99.90
22185;DHT22;11258;52.516;13.318;2023-05-02T00:58:10;14.90;99.90
22185;DHT22;11258;52.516;13.318;2023-05-02T01:00:58;14.80;99.90
22185;DHT22;11258;52.516;13.318;2023-05-02T01:09:41;14.60;99.90
22185;DHT22;11258;52.516;13.318;2023-05-02T01:12:31;14.60;99.90
22185;DHT22;11258;52.516;13.318;2023-05-02T01:15:01;14.50;99.90
22185;DHT22;11258;52.516;13.318;2023-05-02T01:17:32;14.50;99.90
22185;DHT22;11258;52.516;13.318;2023-05-02T01:20:02;14.50;99.90
22185;DHT22;11258;52.516;13.318;2023-05-02T01:22:30;14.60;99.90
22185;DHT22;11258;52.516;13.318;2023-05-02T01:30:23;14.50;99.90
22185;DHT22;11258;52.516;13.318;2023-05-02T01:32:51;14.50;99.90
22185;DHT22;11258;52.516;13.318;2023-05-02T01:35:19;14.50;99.90
22185;DHT22;11258;52.516;13.318;2023-05-02T01:37:46;14.50;99.90
22185;DHT22;11258;52.516;13.318;2023-05-02T01:40:16;14.60;99.90
22185;DHT22;11258;52.516;13.318;2023-05-02T01:42:43;14.50;99.90
22185;DHT22;11258;52.516;13.318;2023-05-02T01:45:11;14.50;99.90
22185;DHT22;11258;52.516;13.318;2023-05-02T01:47:39;14.40;99.90
22185;DHT22;11258;52.516;13.318;2023-05-02T01:50:07;14.40;99.90
22185;DHT22;11258;52.516;13.318;2023-05-02T01:52:34;14.30;99.90
22185;DHT22;11258;52.516;13.318;2023-05-02T01:55:01;14.20;99.90
22185;DHT22;11258;52.516;13.318;2023-05-02T01:57:29;14.30;99.90
22185;DHT22;11258;52.516;13.318;2023-05-02T01:59:56;14.20;99.90
22185;DHT22;11258;52.516;13.318;2023-05-02T02:02:25;14.10;99.90
22185;DHT22;11258;52.516;13.318;2023-05-02T02:04:55;14.20;99.90
22185;DHT22;11258;52.516;13.318;2023-05-02T02:07:22;14.30;99.90
22185;DHT22;11258;52.516;13.318;2023-05-02T02:09:47;14.20;99.90
22185;DHT22;11258;52.516;13.318;2023-05-02T02:12:22;14.20;99.90
22185;DHT22;11258;52.516;13.318;2023-05-02T02:14:59;14.20;99.90
22185;DHT22;11258;52.516;13.318;2023-05-02T02:17:36;14.10;99.90
22185;DHT22;11258;52.516;13.318;2023-05-02T02:20:07;14.00;99.90
22185;DHT22;11258;52.516;13.318;2023-05-02T02:22:37;14.00;99.90
22185;DHT22;11258;52.516;13.318;2023-05-02T02:25:05;13.90;99.90
22185;DHT22;11258;52.516;13.318;2023-05-02T02:27:32;13.90;99.90
22185;DHT22;11258;52.516;13.318;2023-05-02T02:29:58;13.90;99.90
22185;DHT22;11258;52.516;13.318;2023-05-02T02:32:23;13.90;99.90
22185;DHT22;11258;52.516;13.318;2023-05-02T02:34:50;13.80;99.90
22185;DHT22;11258;52.516;13.318;2023-05-02T02:37:25;13.80;99.90
22185;DHT22;11258;52.516;13.318;2023-05-02T02:48:44;13.50;99.90
22185;DHT22;11258;52.516;13.318;2023-05-02T02:54:35;13.50;99.90
22185;DHT22;11258;52.516;13.318;2023-05-02T02:57:10;13.60;99.90
22185;DHT22;11258;52.516;13.318;2023-05-02T02:59:45;13.40;99.90
22185;DHT22;11258;52.516;13.318;2023-05-02T03:02:14;13.40;99.90
22185;DHT22;11258;52.516;13.318;2023-05-02T03:04:42;13.30;99.90
22185;DHT22;11258;52.516;13.318;2023-05-02T03:07:10;13.30;99.90
22185;DHT22;11258;52.516;13.318;2023-05-02T03:09:46;13.10;99.90
22185;DHT22;11258;52.516;13.318;2023-05-02T03:12:12;13.10;99.90
22185;DHT22;11258;52.516;13.318;2023-05-02T03:14:38;13.10;99.90
22185;DHT22;11258;52.516;13.318;2023-05-02T03:17:04;13.00;99.90
22185;DHT22;11258;52.516;13.318;2023-05-02T03:19:30;13.00;99.90
22185;DHT22;11258;52.516;13.318;2023-05-02T03:21:56;13.00;99.90
22185;DHT22;11258;52.516;13.318;2023-05-02T03:24:21;13.10;99.90
22185;DHT22;11258;52.516;13.318;2023-05-02T03:26:47;12.90;99.90
22185;DHT22;11258;52.516;13.318;2023-05-02T03:29:13;12.90;99.90
22185;DHT22;11258;52.516;13.318;2023-05-02T03:31:39;12.90;99.90
22185;DHT22;11258;52.516;13.318;2023-05-02T03:34:05;12.90;99.90
22185;DHT22;11258;52.516;13.318;2023-05-02T03:36:31;12.90;99.90
22185;DHT22;11258;52.516;13.318;2023-05-02T03:38:57;12.80;99.90
22185;DHT22;11258;52.516;13.318;2023-05-02T03:41:22;12.80;99.90
22185;DHT22;11258;52.516;13.318;2023-05-02T03:43:49;12.70;99.90
22185;DHT22;11258;52.516;13.318;2023-05-02T03:46:15;12.80;99.90
22185;DHT22;11258;52.516;13.318;2023-05-02T03:48:41;12.80;99.90
22185;DHT22;11258;52.516;13.318;2023-05-02T03:51:07;12.90;99.90
22185;DHT22;11258;52.516;13.318;2023-05-02T03:53:34;12.80;99.90
22185;DHT22;11258;52.516;13.318;2023-05-02T03:56:00;12.90;99.90
22185;DHT22;11258;52.516;13.318;2023-05-02T03:58:25;12.70;99.90
22185;DHT22;11258;52.516;13.318;2023-05-02T04:00:51;12.80;99.90
22185;DHT22;11258;52.516;13.318;2023-05-02T04:03:18;12.90;99.90
22185;DHT22;11258;52.516;13.318;2023-05-02T04:05:44;12.80;99.90
22185;DHT22;11258;52.516;13.318;2023-05-02T04:08:10;12.80;99.90
22185;DHT22;11258;52.516;13.318;2023-05-02T04:10:36;12.70;99.90
22185;DHT22;11258;52.516;13.318;2023-05-02T04:13:02;12.70;99.90
22185;DHT22;11258;52.516;13.318;2023-05-02T04:15:29;12.70;99.90
22185;DHT22;11258;52.516;13.318;2023-05-02T04:17:56;12.70;99.90
22185;DHT22;11258;52.516;13.318;2023-05-02T04:20:22;12.60;99.90
22185;DHT22;11258;52.516;13.318;2023-05-02T04:22:48;12.80;99.90
22185;DHT22;11258;52.516;13.318;2023-05-02T04:25:15;12.80;99.90
22185;DHT22;11258;52.516;13.318;2023-05-02T04:27:40;12.90;99.90
22185;DHT22;11258;52.516;13.318;2023-05-02T04:30:07;13.00;99.90
22185;DHT22;11258;52.516;13.318;2023-05-02T04:32:32;13.00;99.90
22185;DHT22;11258;52.516;13.318;2023-05-02T04:34:58;13.10;99.90
22185;DHT22;11258;52.516;13.318;2023-05-02T04:37:24;13.30;99.90
22185;DHT22;11258;52.516;13.318;2023-05-02T04:39:50;13.40;99.90
22185;DHT22;11258;52.516;13.318;2023-05-02T04:42:15;13.50;99.90
22185;DHT22;11258;52.516;13.318;2023-05-02T04:44:41;13.40;99.90
22185;DHT22;11258;52.516;13.318;2023-05-02T04:47:07;13.70;99.90
22185;DHT22;11258;52.516;13.318;2023-05-02T04:49:32;14.00;99.90
22185;DHT22;11258;52.516;13.318;2023-05-02T04:51:58;14.40;99.90
22185;DHT22;11258;52.516;13.318;2023-05-02T04:54:24;14.50;99.90
22185;DHT22;11258;52.516;13.318;2023-05-02T04:56:49;14.80;99.90
22185;DHT22;11258;52.516;13.318;2023-05-02T04:59:15;14.90;99.90
22185;DHT22;11258;52.516;13.318;2023-05-02T05:01:41;14.70;99.90
22185;DHT22;11258;52.516;13.318;2023-05-02T05:04:07;14.50;99.90
22185;DHT22;11258;52.516;13.318;2023-05-02T05:06:32;14.30;99.90
22185;DHT22;11258;52.516;13.318;2023-05-02T05:08:58;14.00;99.90
22185;DHT22;11258;52.516;13.318;2023-05-02T05:11:24;13.90;99.90
22185;DHT22;11258;52.516;13.318;2023-05-02T05:13:50;13.70;99.90
22185;DHT22;11258;52.516;13.318;2023-05-02T05:16:16;13.90;99.90
22185;DHT22;11258;52.516;13.318;2023-05-02T05:18:42;13.70;99.90
22185;DHT22;11258;52.516;13.318;2023-05-02T05:21:08;13.70;99.90
22185;DHT22;11258;52.516;13.318;2023-05-02T05:23:35;13.50;99.90
22185;DHT22;11258;52.516;13.318;2023-05-02T05:26:10;13.60;99.90
22185;DHT22;11258;52.516;13.318;2023-05-02T05:28:37;13.80;99.90
22185;DHT22;11258;52.516;13.318;2023-05-02T05:31:11;14.20;99.90
22185;DHT22;11258;52.516;13.318;2023-05-02T05:33:38;15.60;99.90
22185;DHT22;11258;52.516;13.318;2023-05-02T05:36:05;16.60;99.90
22185;DHT22;11258;52.516;13.318;2023-05-02T05:38:30;17.30;99.90
22185;DHT22;11258;52.516;13.318;2023-05-02T05:40:56;18.30;99.90
22185;DHT22;11258;52.516;13.318;2023-05-02T05:43:22;18.50;99.90
22185;DHT22;11258;52.516;13.318;2023-05-02T05:45:48;19.00;99.90
22185;DHT22;11258;52.516;13.318;2023-05-02T05:48:15;19.30;99.90
22185;DHT22;11258;52.516;13.318;2023-05-02T05:50:41;19.50;99.90
22185;DHT22;11258;52.516;13.318;2023-05-02T05:53:07;19.40;99.90
22185;DHT22;11258;52.516;13.318;2023-05-02T05:55:32;20.00;99.90
22185;DHT22;11258;52.516;13.318;2023-05-02T05:57:58;20.40;99.90
22185;DHT22;11258;52.516;13.318;2023-05-02T06:00:24;20.20;99.90
22185;DHT22;11258;52.516;13.318;2023-05-02T06:02:49;19.40;99.90
22185;DHT22;11258;52.516;13.318;2023-05-02T06:05:15;19.70;99.90
22185;DHT22;11258;52.516;13.318;2023-05-02T06:07:41;20.90;99.90
22185;DHT22;11258;52.516;13.318;2023-05-02T06:10:07;21.60;99.90
22185;DHT22;11258;52.516;13.318;2023-05-02T06:12:34;21.80;99.90
22185;DHT22;11258;52.516;13.318;2023-05-02T06:15:00;21.40;99.90
22185;DHT22;11258;52.516;13.318;2023-05-02T06:17:26;20.50;99.90
22185;DHT22;11258;52.516;13.318;2023-05-02T06:19:51;20.70;99.90
22185;DHT22;11258;52.516;13.318;2023-05-02T06:22:17;20.50;99.90
22185;DHT22;11258;52.516;13.318;2023-05-02T06:24:43;21.10;99.90
22185;DHT22;11258;52.516;13.318;2023-05-02T06:27:08;21.10;99.90
22185;DHT22;11258;52.516;13.318;2023-05-02T06:29:34;21.00;99.90
22185;DHT22;11258;52.516;13.318;2023-05-02T06:32:00;20.30;99.90
22185;DHT22;11258;52.516;13.318;2023-05-02T06:34:25;20.70;99.90
22185;DHT22;11258;52.516;13.318;2023-05-02T06:36:54;20.60;99.90
22185;DHT22;11258;52.516;13.318;2023-05-02T06:39:23;20.90;99.90
22185;DHT22;11258;52.516;13.318;2023-05-02T06:41:49;21.40;99.90
22185;DHT22;11258;52.516;13.318;2023-05-02T06:44:14;21.80;99.90
22185;DHT22;11258;52.516;13.318;2023-05-02T06:46:41;21.90;99.90
22185;DHT22;11258;52.516;13.318;2023-05-02T06:49:06;22.10;99.90
22185;DHT22;11258;52.516;13.318;2023-05-02T06:51:32;22.30;99.90
22185;DHT22;11258;52.516;13.318;2023-05-02T06:53:58;21.10;99.90
22185;DHT22;11258;52.516;13.318;2023-05-02T06:56:24;21.50;99.90
22185;DHT22;11258;52.516;13.318;2023-05-02T06:58:50;22.00;99.90
22185;DHT22;11258;52.516;13.318;2023-05-02T07:01:16;22.40;99.90
22185;DHT22;11258;52.516;13.318;2023-05-02T07:03:42;22.80;99.90
22185;DHT22;11258;52.516;13.318;2023-05-02T07:06:08;23.10;99.90
22185;DHT22;11258;52.516;13.318;2023-05-02T07:08:34;20.60;99.90
22185;DHT22;11258;52.516;13.318;2023-05-02T07:11:00;19.60;99.90
22185;DHT22;11258;52.516;13.318;2023-05-02T07:13:26;19.10;99.90
22185;DHT22;11258;52.516;13.318;2023-05-02T07:15:52;17.90;99.90
22185;DHT22;11258;52.516;13.318;2023-05-02T07:18:17;17.70;99.90
22185;DHT22;11258;52.516;13.318;2023-05-02T07:20:43;17.50;99.90
22185;DHT22;11258;52.516;13.318;2023-05-02T07:23:09;17.40;99.90
22185;DHT22;11258;52.516;13.318;2023-05-02T07:25:34;17.80;99.90
22185;DHT22;11258;52.516;13.318;2023-05-02T07:28:01;17.60;99.90
22185;DHT22;11258;52.516;13.318;2023-05-02T07:30:26;17.90;99.90
22185;DHT22;11258;52.516;13.318;2023-05-02T07:32:52;17.90;99.90
22185;DHT22;11258;52.516;13.318;2023-05-02T07:35:18;17.40;99.90
22185;DHT22;11258;52.516;13.318;2023-05-02T07:37:43;17.60;99.90
22185;DHT22;11258;52.516;13.318;2023-05-02T07:40:09;17.40;99.90
22185;DHT22;11258;52.516;13.318;2023-05-02T07:42:35;17.40;99.90
22185;DHT22;11258;52.516;13.318;2023-05-02T07:45:01;16.90;99.90
22185;DHT22;11258;52.516;13.318;2023-05-02T07:47:27;16.50;99.90
22185;DHT22;11258;52.516;13.318;2023-05-02T07:49:54;16.40;99.90
22185;DHT22;11258;52.516;13.318;2023-05-02T07:52:20;16.10;99.90
22185;DHT22;11258;52.516;13.318;2023-05-02T07:54:49;16.00;99.90
22185;DHT22;11258;52.516;13.318;2023-05-02T07:57:15;15.60;99.90
22185;DHT22;11258;52.516;13.318;2023-05-02T07:59:40;15.20;99.90
22185;DHT22;11258;52.516;13.318;2023-05-02T08:02:06;15.00;99.90
22185;DHT22;11258;52.516;13.318;2023-05-02T08:04:33;14.90;99.90
22185;DHT22;11258;52.516;13.318;2023-05-02T08:06:58;15.20;99.90
22185;DHT22;11258;52.516;13.318;2023-05-02T08:09:25;15.50;99.90
22185;DHT22;11258;52.516;13.318;2023-05-02T08:11:50;15.40;99.90
22185;DHT22;11258;52.516;13.318;2023-05-02T08:14:16;15.30;99.90
22185;DHT22;11258;52.516;13.318;2023-05-02T08:16:42;15.50;99.90
22185;DHT22;11258;52.516;13.318;2023-05-02T08:19:08;15.50;99.90
22185;DHT22;11258;52.516;13.318;2023-05-02T08:21:33;15.60;99.90
22185;DHT22;11258;52.516;13.318;2023-05-02T08:23:59;15.90;99.90
22185;DHT22;11258;52.516;13.318;2023-05-02T08:26:26;16.00;99.90
22185;DHT22;11258;52.516;13.318;2023-05-02T08:28:51;16.30;99.90
22185;DHT22;11258;52.516;13.318;2023-05-02T08:31:17;16.00;99.90
22185;DHT22;11258;52.516;13.318;2023-05-02T08:33:43;16.00;99.90
22185;DHT22;11258;52.516;13.318;2023-05-02T08:36:10;15.80;99.90
22185;DHT22;11258;52.516;13.318;2023-05-02T08:38:36;15.80;99.90
22185;DHT22;11258;52.516;13.318;2023-05-02T08:41:02;15.50;99.90
22185;DHT22;11258;52.516;13.318;2023-05-02T08:43:28;15.30;99.90
22185;DHT22;11258;52.516;13.318;2023-05-02T08:45:58;15.40;99.90
22185;DHT22;11258;52.516;13.318;2023-05-02T08:48:26;15.50;99.90
22185;DHT22;11258;52.516;13.318;2023-05-02T08:50:53;15.50;99.90
22185;DHT22;11258;52.516;13.318;2023-05-02T08:53:20;15.60;99.90
22185;DHT22;11258;52.516;13.318;2023-05-02T08:55:45;15.70;99.90
22185;DHT22;11258;52.516;13.318;2023-05-02T08:58:13;15.70;99.90
22185;DHT22;11258;52.516;13.318;2023-05-02T09:00:40;15.70;99.90
22185;DHT22;11258;52.516;13.318;2023-05-02T09:05:45;15.30;99.90
22185;DHT22;11258;52.516;13.318;2023-05-02T09:08:23;15.50;99.90
22185;DHT22;11258;52.516;13.318;2023-05-02T09:10:49;15.50;99.90
22185;DHT22;11258;52.516;13.318;2023-05-02T09:16:27;15.60;99.90
22185;DHT22;11258;52.516;13.318;2023-05-02T09:18:57;15.60;99.90
22185;DHT22;11258;52.516;13.318;2023-05-02T09:21:25;15.50;99.90
22185;DHT22;11258;52.516;13.318;2023-05-02T09:23:55;15.40;99.90
22185;DHT22;11258;52.516;13.318;2023-05-02T09:26:26;15.30;99.90
22185;DHT22;11258;52.516;13.318;2023-05-02T09:28:55;15.00;99.90
22185;DHT22;11258;52.516;13.318;2023-05-02T09:31:23;14.90;99.90
22185;DHT22;11258;52.516;13.318;2023-05-02T09:33:53;15.00;99.90
22185;DHT22;11258;52.516;13.318;2023-05-02T09:36:20;15.10;99.90
22185;DHT22;11258;52.516;13.318;2023-05-02T09:38:48;15.10;99.90
22185;DHT22;11258;52.516;13.318;2023-05-02T09:41:14;15.00;99.90
22185;DHT22;11258;52.516;13.318;2023-05-02T09:43:40;15.10;99.90
22185;DHT22;11258;52.516;13.318;2023-05-02T09:46:10;15.00;99.90
22185;DHT22;11258;52.516;13.318;2023-05-02T09:48:53;15.00;99.90
22185;DHT22;11258;52.516;13.318;2023-05-02T09:51:20;15.00;99.90
22185;DHT22;11258;52.516;13.318;2023-05-02T09:53:47;14.80;99.90
22185;DHT22;11258;52.516;13.318;2023-05-02T09:56:12;15.00;99.90
22185;DHT22;11258;52.516;13.318;2023-05-02T09:58:38;15.30;99.90
22185;DHT22;11258;52.516;13.318;2023-05-02T10:01:04;15.60;99.90
22185;DHT22;11258;52.516;13.318;2023-05-02T10:03:30;15.60;99.90
22185;DHT22;11258;52.516;13.318;2023-05-02T10:05:57;15.60;99.90
22185;DHT22;11258;52.516;13.318;2023-05-02T10:08:26;15.70;99.90
22185;DHT22;11258;52.516;13.318;2023-05-02T10:10:57;15.60;99.90
22185;DHT22;11258;52.516;13.318;2023-05-02T10:13:26;15.20;99.90
22185;DHT22;11258;52.516;13.318;2023-05-02T10:16:03;15.20;99.90
22185;DHT22;11258;52.516;13.318;2023-05-02T10:18:57;15.10;99.90
22185;DHT22;11258;52.516;13.318;2023-05-02T10:21:25;15.30;99.90
22185;DHT22;11258;52.516;13.318;2023-05-02T10:23:54;15.20;99.90
22185;DHT22;11258;52.516;13.318;2023-05-02T10:26:21;15.10;99.90
22185;DHT22;11258;52.516;13.318;2023-05-02T10:28:49;14.70;99.90
22185;DHT22;11258;52.516;13.318;2023-05-02T10:31:15;14.70;99.90
22185;DHT22;11258;52.516;13.318;2023-05-02T10:33:42;14.20;99.90
22185;DHT22;11258;52.516;13.318;2023-05-02T10:36:09;14.30;99.90
22185;DHT22;11258;52.516;13.318;2023-05-02T10:38:37;14.10;99.90
22185;DHT22;11258;52.516;13.318;2023-05-02T10:41:08;13.90;99.90
22185;DHT22;11258;52.516;13.318;2023-05-02T10:43:37;13.80;99.90
22185;DHT22;11258;52.516;13.318;2023-05-02T10:46:36;13.90;99.90
22185;DHT22;11258;52.516;13.318;2023-05-02T10:49:12;14.00;99.90
22185;DHT22;11258;52.516;13.318;2023-05-02T10:51:40;13.70;99.90
22185;DHT22;11258;52.516;13.318;2023-05-02T10:59:47;13.90;99.90
22185;DHT22;11258;52.516;13.318;2023-05-02T11:05:06;13.20;99.90
22185;DHT22;11258;52.516;13.318;2023-05-02T11:07:36;13.30;99.90
22185;DHT22;11258;52.516;13.318;2023-05-02T11:15:10;13.30;99.90
22185;DHT22;11258;52.516;13.318;2023-05-02T11:20:23;13.50;99.90
22185;DHT22;11258;52.516;13.318;2023-05-02T11:22:49;13.50;99.90
22185;DHT22;11258;52.516;13.318;2023-05-02T11:25:33;13.60;99.90
22185;DHT22;11258;52.516;13.318;2023-05-02T11:27:59;13.90;99.90
22185;DHT22;11258;52.516;13.318;2023-05-02T11:30:41;14.10;99.90
22185;DHT22;11258;52.516;13.318;2023-05-02T11:35:34;14.50;99.90
22185;DHT22;11258;52.516;13.318;2023-05-02T11:38:05;14.60;99.90
22185;DHT22;11258;52.516;13.318;2023-05-02T11:40:31;14.40;99.90
22185;DHT22;11258;52.516;13.318;2023-05-02T11:42:58;14.40;99.90
22185;DHT22;11258;52.516;13.318;2023-05-02T11:45:34;14.00;99.90
22185;DHT22;11258;52.516;13.318;2023-05-02T11:48:04;14.20;99.90
22185;DHT22;11258;52.516;13.318;2023-05-02T11:50:32;14.30;99.90
22185;DHT22;11258;52.516;13.318;2023-05-02T11:52:57;14.10;99.90
22185;DHT22;11258;52.516;13.318;2023-05-02T11:55:23;14.20;99.90
22185;DHT22;11258;52.516;13.318;2023-05-02T11:57:49;14.40;99.90
22185;DHT22;11258;52.516;13.318;2023-05-02T12:00:16;14.10;99.90
22185;DHT22;11258;52.516;13.318;2023-05-02T12:02:43;13.90;99.90
22185;DHT22;11258;52.516;13.318;2023-05-02T12:05:11;14.00;99.90
22185;DHT22;11258;52.516;13.318;2023-05-02T12:07:41;13.90;99.90
22185;DHT22;11258;52.516;13.318;2023-05-02T12:10:08;13.80;99.90
22185;DHT22;11258;52.516;13.318;2023-05-02T12:12:34;13.80;99.90
22185;DHT22;11258;52.516;13.318;2023-05-02T12:15:04;13.80;99.90
22185;DHT22;11258;52.516;13.318;2023-05-02T12:17:36;13.90;99.90
22185;DHT22;11258;52.516;13.318;2023-05-02T12:20:08;14.10;99.90
22185;DHT22;11258;52.516;13.318;2023-05-02T12:22:34;13.60;99.90
22185;DHT22;11258;52.516;13.318;2023-05-02T12:25:00;13.60;99.90
22185;DHT22;11258;52.516;13.318;2023-05-02T12:27:28;13.90;99.90
22185;DHT22;11258;52.516;13.318;2023-05-02T12:29:54;14.00;99.90
22185;DHT22;11258;52.516;13.318;2023-05-02T12:32:32;14.20;99.90
22185;DHT22;11258;52.516;13.318;2023-05-02T12:34:59;14.20;99.90
22185;DHT22;11258;52.516;13.318;2023-05-02T12:37:25;14.40;99.90
22185;DHT22;11258;52.516;13.318;2023-05-02T12:39:53;14.30;99.90
22185;DHT22;11258;52.516;13.318;2023-05-02T12:42:21;13.90;99.90
22185;DHT22;11258;52.516;13.318;2023-05-02T12:44:48;14.20;99.90
22185;DHT22;11258;52.516;13.318;2023-05-02T12:47:17;14.60;99.90
22185;DHT22;11258;52.516;13.318;2023-05-02T12:49:57;14.10;99.90
22185;DHT22;11258;52.516;13.318;2023-05-02T12:55:29;13.90;99.90
22185;DHT22;11258;52.516;13.318;2023-05-02T12:58:08;14.00;99.90
22185;DHT22;11258;52.516;13.318;2023-05-02T13:00:37;14.20;99.90
22185;DHT22;11258;52.516;13.318;2023-05-02T13:03:03;14.20;99.90
22185;DHT22;11258;52.516;13.318;2023-05-02T13:05:30;14.30;99.90
22185;DHT22;11258;52.516;13.318;2023-05-02T13:07:56;14.50;99.90
22185;DHT22;11258;52.516;13.318;2023-05-02T13:10:22;14.50;99.90
22185;DHT22;11258;52.516;13.318;2023-05-02T13:12:49;14.30;99.90
22185;DHT22;11258;52.516;13.318;2023-05-02T13:15:15;14.40;99.90
22185;DHT22;11258;52.516;13.318;2023-05-02T13:17:41;14.50;99.90
22185;DHT22;11258;52.516;13.318;2023-05-02T13:20:07;14.70;99.90
22185;DHT22;11258;52.516;13.318;2023-05-02T13:22:34;14.40;99.90
22185;DHT22;11258;52.516;13.318;2023-05-02T13:25:04;14.40;99.90
22185;DHT22;11258;52.516;13.318;2023-05-02T13:27:31;14.30;99.90
22185;DHT22;11258;52.516;13.318;2023-05-02T13:30:01;14.50;99.90
22185;DHT22;11258;52.516;13.318;2023-05-02T13:32:27;14.70;99.90
22185;DHT22;11258;52.516;13.318;2023-05-02T13:34:53;14.90;99.90
22185;DHT22;11258;52.516;13.318;2023-05-02T13:37:19;14.30;99.90
22185;DHT22;11258;52.516;13.318;2023-05-02T13:39:45;14.20;99.90
22185;DHT22;11258;52.516;13.318;2023-05-02T13:42:10;14.20;99.90
22185;DHT22;11258;52.516;13.318;2023-05-02T13:44:36;14.10;99.90
22185;DHT22;11258;52.516;13.318;2023-05-02T13:47:02;13.80;99.90
22185;DHT22;11258;52.516;13.318;2023-05-02T13:51:53;14.10;99.90
22185;DHT22;11258;52.516;13.318;2023-05-02T13:54:19;14.00;99.90
22185;DHT22;11258;52.516;13.318;2023-05-02T13:56:45;14.10;99.90
22185;DHT22;11258;52.516;13.318;2023-05-02T13:59:10;14.10;99.90
22185;DHT22;11258;52.516;13.318;2023-05-02T14:01:36;13.90;99.90
22185;DHT22;11258;52.516;13.318;2023-05-02T14:04:05;13.70;99.90
22185;DHT22;11258;52.516;13.318;2023-05-02T14:06:33;13.70;99.90
22185;DHT22;11258;52.516;13.318;2023-05-02T14:08:59;13.70;99.90
22185;DHT22;11258;52.516;13.318;2023-05-02T14:11:25;14.20;99.90
22185;DHT22;11258;52.516;13.318;2023-05-02T14:13:51;14.20;99.90
22185;DHT22;11258;52.516;13.318;2023-05-02T14:16:17;14.20;99.90
22185;DHT22;11258;52.516;13.318;2023-05-02T14:18:43;14.20;99.90
22185;DHT22;11258;52.516;13.318;2023-05-02T14:21:10;14.30;99.90
22185;DHT22;11258;52.516;13.318;2023-05-02T14:23:35;14.50;99.90
22185;DHT22;11258;52.516;13.318;2023-05-02T14:26:01;14.30;99.90
22185;DHT22;11258;52.516;13.318;2023-05-02T14:28:28;14.40;99.90
22185;DHT22;11258;52.516;13.318;2023-05-02T14:30:53;14.00;99.90
22185;DHT22;11258;52.516;13.318;2023-05-02T14:33:19;13.50;99.90
22185;DHT22;11258;52.516;13.318;2023-05-02T14:35:45;13.50;99.90
22185;DHT22;11258;52.516;13.318;2023-05-02T14:38:10;13.50;99.90
22185;DHT22;11258;52.516;13.318;2023-05-02T14:40:36;13.40;99.90
22185;DHT22;11258;52.516;13.318;2023-05-02T14:43:02;13.10;99.90
22185;DHT22;11258;52.516;13.318;2023-05-02T14:45:29;13.50;99.90
22185;DHT22;11258;52.516;13.318;2023-05-02T14:47:55;13.20;99.90
22185;DHT22;11258;52.516;13.318;2023-05-02T14:50:22;13.40;99.90
22185;DHT22;11258;52.516;13.318;2023-05-02T14:52:49;13.40;99.90
22185;DHT22;11258;52.516;13.318;2023-05-02T14:55:15;13.60;99.90
22185;DHT22;11258;52.516;13.318;2023-05-02T14:57:40;13.60;99.90
22185;DHT22;11258;52.516;13.318;2023-05-02T15:00:06;13.40;99.90
22185;DHT22;11258;52.516;13.318;2023-05-02T15:02:33;13.40;99.90
22185;DHT22;11258;52.516;13.318;2023-05-02T15:04:59;13.10;99.90
22185;DHT22;11258;52.516;13.318;2023-05-02T15:07:24;12.90;99.90
22185;DHT22;11258;52.516;13.318;2023-05-02T15:09:51;12.80;99.90
22185;DHT22;11258;52.516;13.318;2023-05-02T15:12:16;13.00;99.90
22185;DHT22;11258;52.516;13.318;2023-05-02T15:14:42;13.00;99.90
22185;DHT22;11258;52.516;13.318;2023-05-02T15:17:07;13.40;99.90
22185;DHT22;11258;52.516;13.318;2023-05-02T15:19:33;13.10;99.90
22185;DHT22;11258;52.516;13.318;2023-05-02T15:21:59;13.20;99.90
22185;DHT22;11258;52.516;13.318;2023-05-02T15:24:25;13.40;99.90
22185;DHT22;11258;52.516;13.318;2023-05-02T15:26:50;13.30;99.90
22185;DHT22;11258;52.516;13.318;2023-05-02T15:29:16;13.10;99.90
22185;DHT22;11258;52.516;13.318;2023-05-02T15:31:42;12.90;99.90
22185;DHT22;11258;52.516;13.318;2023-05-02T15:34:08;12.70;99.90
22185;DHT22;11258;52.516;13.318;2023-05-02T15:36:33;12.60;99.90
22185;DHT22;11258;52.516;13.318;2023-05-02T15:39:02;12.60;99.90
22185;DHT22;11258;52.516;13.318;2023-05-02T15:41:28;12.90;99.90
22185;DHT22;11258;52.516;13.318;2023-05-02T15:43:53;13.00;99.90
22185;DHT22;11258;52.516;13.318;2023-05-02T15:46:19;13.00;99.90
22185;DHT22;11258;52.516;13.318;2023-05-02T15:48:45;13.00;99.90
22185;DHT22;11258;52.516;13.318;2023-05-02T15:51:11;13.10;99.90
22185;DHT22;11258;52.516;13.318;2023-05-02T15:53:38;13.50;99.90
22185;DHT22;11258;52.516;13.318;2023-05-02T15:56:10;13.40;99.90
22185;DHT22;11258;52.516;13.318;2023-05-02T15:58:36;13.50;99.90
22185;DHT22;11258;52.516;13.318;2023-05-02T16:01:02;13.20;99.90
22185;DHT22;11258;52.516;13.318;2023-05-02T16:03:28;13.40;99.90
22185;DHT22;11258;52.516;13.318;2023-05-02T16:05:56;12.70;99.90
22185;DHT22;11258;52.516;13.318;2023-05-02T16:08:24;12.70;99.90
22185;DHT22;11258;52.516;13.318;2023-05-02T16:10:49;12.90;99.90